sensor_id;sensor_type;location;lat;lon;timestamp;P1;durP1;ratioP1;P2;durP2;ratioP2
59922;SDS011;45778;51.142;3.732;2022-12-18T00:01:56;93.47;;;38.88;;
59922;SDS011;45778;51.142;3.732;2022-12-18T00:04:24;91.53;;;36.42;;
59922;SDS011;45778;51.142;3.732;2022-12-18T00:06:51;90.10;;;38.40;;
59922;SDS011;45778;51.142;3.732;2022-12-18T00:09:17;104.22;;;40.22;;
59922;SDS011;45778;51.142;3.732;2022-12-18T00:11:44;101.72;;;39.28;;
59922;SDS011;45778;51.142;3.732;2022-12-18T00:14:13;100.72;;;38.15;;
59922;SDS011;45778;51.142;3.732;2022-12-18T00:16:39;91.20;;;37.83;;
59922;SDS011;45778;51.142;3.732;2022-12-18T00:19:08;84.60;;;35.20;;
59922;SDS011;45778;51.142;3.732;2022-12-18T00:21:34;85.85;;;35.38;;
59922;SDS011;45778;51.142;3.732;2022-12-18T00:24:00;84.30;;;35.17;;
59922;SDS011;45778;51.142;3.732;2022-12-18T00:26:27;80.22;;;34.10;;
59922;SDS011;45778;51.142;3.732;2022-12-18T00:28:57;72.93;;;31.50;;
59922;SDS011;45778;51.142;3.732;2022-12-18T00:31:27;78.50;;;32.57;;
59922;SDS011;45778;51.142;3.732;2022-12-18T00:33:53;82.15;;;32.70;;
59922;SDS011;45778;51.142;3.732;2022-12-18T00:36:22;81.85;;;32.47;;
59922;SDS011;45778;51.142;3.732;2022-12-18T00:38:49;88.07;;;33.00;;
59922;SDS011;45778;51.142;3.732;2022-12-18T00:41:16;79.35;;;31.35;;
59922;SDS011;45778;51.142;3.732;2022-12-18T00:44:02;75.82;;;30.45;;
59922;SDS011;45778;51.142;3.732;2022-12-18T00:46:29;86.10;;;33.05;;
59922;SDS011;45778;51.142;3.732;2022-12-18T00:48:55;73.45;;;31.90;;
59922;SDS011;45778;51.142;3.732;2022-12-18T00:51:22;82.45;;;33.75;;
59922;SDS011;45778;51.142;3.732;2022-12-18T00:53:48;85.80;;;33.72;;
59922;SDS011;45778;51.142;3.732;2022-12-18T00:56:14;82.35;;;32.25;;
59922;SDS011;45778;51.142;3.732;2022-12-18T00:58:39;81.43;;;32.17;;
59922;SDS011;45778;51.142;3.732;2022-12-18T01:01:05;88.57;;;32.35;;
59922;SDS011;45778;51.142;3.732;2022-12-18T01:03:32;86.10;;;31.42;;
59922;SDS011;45778;51.142;3.732;2022-12-18T01:05:58;89.70;;;33.30;;
59922;SDS011;45778;51.142;3.732;2022-12-18T01:08:23;76.90;;;31.27;;
59922;SDS011;45778;51.142;3.732;2022-12-18T01:10:49;79.32;;;31.48;;
59922;SDS011;45778;51.142;3.732;2022-12-18T01:13:15;79.63;;;32.95;;
59922;SDS011;45778;51.142;3.732;2022-12-18T01:15:47;79.10;;;32.65;;
59922;SDS011;45778;51.142;3.732;2022-12-18T01:18:14;79.07;;;32.35;;
59922;SDS011;45778;51.142;3.732;2022-12-18T01:20:39;80.18;;;32.83;;
59922;SDS011;45778;51.142;3.732;2022-12-18T01:23:05;90.40;;;34.47;;
59922;SDS011;45778;51.142;3.732;2022-12-18T01:25:31;81.82;;;30.65;;
59922;SDS011;45778;51.142;3.732;2022-12-18T01:27:58;83.82;;;31.00;;
59922;SDS011;45778;51.142;3.732;2022-12-18T01:30:23;75.97;;;30.13;;
59922;SDS011;45778;51.142;3.732;2022-12-18T01:32:49;78.30;;;32.47;;
59922;SDS011;45778;51.142;3.732;2022-12-18T01:35:15;73.78;;;31.77;;
59922;SDS011;45778;51.142;3.732;2022-12-18T01:37:40;85.18;;;32.30;;
59922;SDS011;45778;51.142;3.732;2022-12-18T01:40:06;69.95;;;30.23;;
59922;SDS011;45778;51.142;3.732;2022-12-18T01:42:32;76.63;;;29.48;;
59922;SDS011;45778;51.142;3.732;2022-12-18T01:47:32;76.15;;;28.73;;
59922;SDS011;45778;51.142;3.732;2022-12-18T01:50:04;68.07;;;28.83;;
59922;SDS011;45778;51.142;3.732;2022-12-18T01:52:51;66.13;;;27.90;;
59922;SDS011;45778;51.142;3.732;2022-12-18T01:55:28;59.22;;;27.65;;
59922;SDS011;45778;51.142;3.732;2022-12-18T01:57:56;77.68;;;28.90;;
59922;SDS011;45778;51.142;3.732;2022-12-18T02:00:25;72.00;;;29.60;;
59922;SDS011;45778;51.142;3.732;2022-12-18T02:02:51;76.40;;;30.35;;
59922;SDS011;45778;51.142;3.732;2022-12-18T02:05:18;70.85;;;28.40;;
59922;SDS011;45778;51.142;3.732;2022-12-18T02:13:20;69.18;;;28.88;;
59922;SDS011;45778;51.142;3.732;2022-12-18T02:18:43;70.35;;;28.70;;
59922;SDS011;45778;51.142;3.732;2022-12-18T02:24:18;65.57;;;27.42;;
59922;SDS011;45778;51.142;3.732;2022-12-18T02:26:50;67.70;;;27.00;;
59922;SDS011;45778;51.142;3.732;2022-12-18T02:29:22;69.28;;;29.23;;
59922;SDS011;45778;51.142;3.732;2022-12-18T02:31:54;73.35;;;27.58;;
59922;SDS011;45778;51.142;3.732;2022-12-18T02:34:24;64.13;;;26.73;;
59922;SDS011;45778;51.142;3.732;2022-12-18T02:36:53;66.25;;;26.30;;
59922;SDS011;45778;51.142;3.732;2022-12-18T02:39:21;67.00;;;27.23;;
59922;SDS011;45778;51.142;3.732;2022-12-18T02:41:50;68.55;;;28.50;;
59922;SDS011;45778;51.142;3.732;2022-12-18T02:44:17;71.15;;;28.63;;
59922;SDS011;45778;51.142;3.732;2022-12-18T02:46:48;79.57;;;29.30;;
59922;SDS011;45778;51.142;3.732;2022-12-18T02:57:21;68.07;;;28.85;;
59922;SDS011;45778;51.142;3.732;2022-12-18T03:00:00;64.80;;;28.48;;
59922;SDS011;45778;51.142;3.732;2022-12-18T03:05:15;62.80;;;26.85;;
59922;SDS011;45778;51.142;3.732;2022-12-18T03:10:24;64.95;;;26.73;;
59922;SDS011;45778;51.142;3.732;2022-12-18T03:12:59;64.88;;;28.17;;
59922;SDS011;45778;51.142;3.732;2022-12-18T03:15:41;71.55;;;28.58;;
59922;SDS011;45778;51.142;3.732;2022-12-18T03:18:33;67.70;;;27.85;;
59922;SDS011;45778;51.142;3.732;2022-12-18T03:21:07;67.95;;;28.00;;
59922;SDS011;45778;51.142;3.732;2022-12-18T03:23:36;68.85;;;27.20;;
59922;SDS011;45778;51.142;3.732;2022-12-18T03:26:13;64.38;;;26.15;;
59922;SDS011;45778;51.142;3.732;2022-12-18T03:28:48;66.60;;;27.98;;
59922;SDS011;45778;51.142;3.732;2022-12-18T03:31:27;62.22;;;27.40;;
59922;SDS011;45778;51.142;3.732;2022-12-18T03:33:55;62.92;;;25.02;;
59922;SDS011;45778;51.142;3.732;2022-12-18T03:36:29;63.58;;;24.70;;
59922;SDS011;45778;51.142;3.732;2022-12-18T03:38:54;67.32;;;26.27;;
59922;SDS011;45778;51.142;3.732;2022-12-18T03:44:00;66.30;;;27.17;;
59922;SDS011;45778;51.142;3.732;2022-12-18T03:47:33;62.17;;;25.02;;
59922;SDS011;45778;51.142;3.732;2022-12-18T03:49:59;58.22;;;24.85;;
59922;SDS011;45778;51.142;3.732;2022-12-18T03:52:46;55.65;;;25.67;;
59922;SDS011;45778;51.142;3.732;2022-12-18T03:55:25;59.30;;;25.25;;
59922;SDS011;45778;51.142;3.732;2022-12-18T03:57:55;54.03;;;24.90;;
59922;SDS011;45778;51.142;3.732;2022-12-18T04:00:22;66.70;;;28.15;;
59922;SDS011;45778;51.142;3.732;2022-12-18T04:02:52;62.55;;;25.35;;
59922;SDS011;45778;51.142;3.732;2022-12-18T04:05:19;58.88;;;25.75;;
59922;SDS011;45778;51.142;3.732;2022-12-18T04:07:47;58.25;;;25.35;;
59922;SDS011;45778;51.142;3.732;2022-12-18T04:10:14;66.07;;;25.30;;
59922;SDS011;45778;51.142;3.732;2022-12-18T04:12:41;65.38;;;25.83;;
59922;SDS011;45778;51.142;3.732;2022-12-18T04:15:07;56.38;;;27.20;;
59922;SDS011;45778;51.142;3.732;2022-12-18T04:17:34;61.08;;;27.45;;
59922;SDS011;45778;51.142;3.732;2022-12-18T04:19:59;62.00;;;26.15;;
59922;SDS011;45778;51.142;3.732;2022-12-18T04:22:26;67.47;;;26.73;;
59922;SDS011;45778;51.142;3.732;2022-12-18T04:24:52;58.47;;;25.98;;
59922;SDS011;45778;51.142;3.732;2022-12-18T04:27:17;62.72;;;24.88;;
59922;SDS011;45778;51.142;3.732;2022-12-18T04:29:43;55.25;;;25.00;;
59922;SDS011;45778;51.142;3.732;2022-12-18T04:32:09;61.97;;;25.73;;
59922;SDS011;45778;51.142;3.732;2022-12-18T04:34:35;59.30;;;25.13;;
59922;SDS011;45778;51.142;3.732;2022-12-18T04:37:00;56.30;;;25.48;;
59922;SDS011;45778;51.142;3.732;2022-12-18T04:39:26;60.10;;;25.50;;
59922;SDS011;45778;51.142;3.732;2022-12-18T04:41:52;62.13;;;25.50;;
59922;SDS011;45778;51.142;3.732;2022-12-18T04:44:17;60.25;;;24.30;;
59922;SDS011;45778;51.142;3.732;2022-12-18T04:46:43;60.45;;;25.58;;
59922;SDS011;45778;51.142;3.732;2022-12-18T04:49:09;51.08;;;24.10;;
59922;SDS011;45778;51.142;3.732;2022-12-18T04:51:36;53.67;;;23.20;;
59922;SDS011;45778;51.142;3.732;2022-12-18T04:54:02;57.45;;;24.17;;
59922;SDS011;45778;51.142;3.732;2022-12-18T04:56:28;52.42;;;23.02;;
59922;SDS011;45778;51.142;3.732;2022-12-18T04:58:55;51.80;;;22.67;;
59922;SDS011;45778;51.142;3.732;2022-12-18T05:01:21;59.47;;;24.17;;
59922;SDS011;45778;51.142;3.732;2022-12-18T05:03:46;55.83;;;23.60;;
59922;SDS011;45778;51.142;3.732;2022-12-18T05:06:12;58.72;;;24.25;;
59922;SDS011;45778;51.142;3.732;2022-12-18T05:08:38;52.90;;;22.73;;
59922;SDS011;45778;51.142;3.732;2022-12-18T05:11:04;48.97;;;22.00;;
59922;SDS011;45778;51.142;3.732;2022-12-18T05:13:35;56.40;;;22.48;;
59922;SDS011;45778;51.142;3.732;2022-12-18T05:16:01;50.13;;;21.52;;
59922;SDS011;45778;51.142;3.732;2022-12-18T05:18:27;49.38;;;21.92;;
59922;SDS011;45778;51.142;3.732;2022-12-18T05:20:53;57.55;;;23.42;;
59922;SDS011;45778;51.142;3.732;2022-12-18T05:23:19;50.22;;;21.90;;
59922;SDS011;45778;51.142;3.732;2022-12-18T05:25:51;49.40;;;22.25;;
59922;SDS011;45778;51.142;3.732;2022-12-18T05:28:18;48.05;;;22.02;;
59922;SDS011;45778;51.142;3.732;2022-12-18T05:30:51;53.28;;;22.50;;
59922;SDS011;45778;51.142;3.732;2022-12-18T05:33:19;45.28;;;20.80;;
59922;SDS011;45778;51.142;3.732;2022-12-18T05:35:49;46.85;;;20.73;;
59922;SDS011;45778;51.142;3.732;2022-12-18T05:38:16;51.58;;;21.50;;
59922;SDS011;45778;51.142;3.732;2022-12-18T05:40:43;41.25;;;19.60;;
59922;SDS011;45778;51.142;3.732;2022-12-18T05:43:09;50.22;;;21.35;;
59922;SDS011;45778;51.142;3.732;2022-12-18T05:45:38;47.47;;;22.15;;
59922;SDS011;45778;51.142;3.732;2022-12-18T05:48:05;43.03;;;20.23;;
59922;SDS011;45778;51.142;3.732;2022-12-18T05:50:35;42.20;;;21.05;;
59922;SDS011;45778;51.142;3.732;2022-12-18T05:53:02;44.30;;;21.85;;
59922;SDS011;45778;51.142;3.732;2022-12-18T05:55:28;47.33;;;20.95;;
59922;SDS011;45778;51.142;3.732;2022-12-18T05:57:54;42.65;;;21.05;;
59922;SDS011;45778;51.142;3.732;2022-12-18T06:00:19;42.78;;;20.98;;
59922;SDS011;45778;51.142;3.732;2022-12-18T06:02:48;42.63;;;20.35;;
59922;SDS011;45778;51.142;3.732;2022-12-18T06:05:14;45.53;;;21.20;;
59922;SDS011;45778;51.142;3.732;2022-12-18T06:07:40;40.03;;;17.90;;
59922;SDS011;45778;51.142;3.732;2022-12-18T06:10:05;38.78;;;19.10;;
59922;SDS011;45778;51.142;3.732;2022-12-18T06:12:31;41.13;;;18.75;;
59922;SDS011;45778;51.142;3.732;2022-12-18T06:14:58;38.78;;;20.02;;
59922;SDS011;45778;51.142;3.732;2022-12-18T06:17:29;38.78;;;18.25;;
59922;SDS011;45778;51.142;3.732;2022-12-18T06:19:55;42.33;;;18.02;;
59922;SDS011;45778;51.142;3.732;2022-12-18T06:22:21;41.67;;;18.42;;
59922;SDS011;45778;51.142;3.732;2022-12-18T06:24:47;38.60;;;17.73;;
59922;SDS011;45778;51.142;3.732;2022-12-18T06:27:12;33.78;;;15.55;;
59922;SDS011;45778;51.142;3.732;2022-12-18T06:29:38;37.00;;;17.67;;
59922;SDS011;45778;51.142;3.732;2022-12-18T06:32:04;38.95;;;17.42;;
59922;SDS011;45778;51.142;3.732;2022-12-18T06:34:30;31.33;;;15.63;;
59922;SDS011;45778;51.142;3.732;2022-12-18T06:36:55;35.35;;;16.65;;
59922;SDS011;45778;51.142;3.732;2022-12-18T06:39:21;31.05;;;14.63;;
59922;SDS011;45778;51.142;3.732;2022-12-18T06:41:47;34.25;;;16.58;;
59922;SDS011;45778;51.142;3.732;2022-12-18T06:44:12;33.67;;;14.75;;
59922;SDS011;45778;51.142;3.732;2022-12-18T06:46:38;34.47;;;15.98;;
59922;SDS011;45778;51.142;3.732;2022-12-18T06:49:04;33.45;;;15.27;;
59922;SDS011;45778;51.142;3.732;2022-12-18T06:51:30;34.55;;;15.40;;
59922;SDS011;45778;51.142;3.732;2022-12-18T06:53:55;30.00;;;14.77;;
59922;SDS011;45778;51.142;3.732;2022-12-18T06:56:21;31.20;;;15.75;;
59922;SDS011;45778;51.142;3.732;2022-12-18T06:58:47;32.70;;;16.50;;
59922;SDS011;45778;51.142;3.732;2022-12-18T07:01:15;35.42;;;16.33;;
59922;SDS011;45778;51.142;3.732;2022-12-18T07:03:42;33.92;;;15.70;;
59922;SDS011;45778;51.142;3.732;2022-12-18T07:06:14;36.53;;;16.35;;
59922;SDS011;45778;51.142;3.732;2022-12-18T07:08:41;37.10;;;17.55;;
59922;SDS011;45778;51.142;3.732;2022-12-18T07:11:07;34.60;;;17.05;;
59922;SDS011;45778;51.142;3.732;2022-12-18T07:13:33;38.30;;;16.00;;
59922;SDS011;45778;51.142;3.732;2022-12-18T07:16:03;34.40;;;15.00;;
59922;SDS011;45778;51.142;3.732;2022-12-18T07:18:33;34.03;;;15.30;;
59922;SDS011;45778;51.142;3.732;2022-12-18T07:21:01;39.97;;;16.67;;
59922;SDS011;45778;51.142;3.732;2022-12-18T07:23:32;32.58;;;16.58;;
59922;SDS011;45778;51.142;3.732;2022-12-18T07:26:03;33.95;;;16.63;;
59922;SDS011;45778;51.142;3.732;2022-12-18T07:28:30;29.45;;;16.98;;
59922;SDS011;45778;51.142;3.732;2022-12-18T07:30:56;35.65;;;16.35;;
59922;SDS011;45778;51.142;3.732;2022-12-18T07:33:23;28.48;;;14.18;;
59922;SDS011;45778;51.142;3.732;2022-12-18T07:35:49;30.83;;;15.63;;
59922;SDS011;45778;51.142;3.732;2022-12-18T07:38:15;33.42;;;15.40;;
59922;SDS011;45778;51.142;3.732;2022-12-18T07:40:41;28.92;;;13.73;;
59922;SDS011;45778;51.142;3.732;2022-12-18T07:43:06;30.02;;;14.70;;
59922;SDS011;45778;51.142;3.732;2022-12-18T07:45:32;28.33;;;14.10;;
59922;SDS011;45778;51.142;3.732;2022-12-18T07:47:58;33.50;;;15.07;;
59922;SDS011;45778;51.142;3.732;2022-12-18T07:50:23;27.00;;;14.23;;
59922;SDS011;45778;51.142;3.732;2022-12-18T07:52:49;28.67;;;14.75;;
59922;SDS011;45778;51.142;3.732;2022-12-18T07:55:15;30.15;;;14.00;;
59922;SDS011;45778;51.142;3.732;2022-12-18T07:57:40;32.40;;;15.23;;
59922;SDS011;45778;51.142;3.732;2022-12-18T08:00:06;31.05;;;15.00;;
59922;SDS011;45778;51.142;3.732;2022-12-18T08:02:32;25.35;;;13.38;;
59922;SDS011;45778;51.142;3.732;2022-12-18T08:04:58;29.90;;;14.30;;
59922;SDS011;45778;51.142;3.732;2022-12-18T08:07:24;28.65;;;13.80;;
59922;SDS011;45778;51.142;3.732;2022-12-18T08:09:49;25.75;;;13.20;;
59922;SDS011;45778;51.142;3.732;2022-12-18T08:12:16;25.45;;;13.15;;
59922;SDS011;45778;51.142;3.732;2022-12-18T08:14:42;27.70;;;13.70;;
59922;SDS011;45778;51.142;3.732;2022-12-18T08:17:08;27.15;;;13.65;;
59922;SDS011;45778;51.142;3.732;2022-12-18T08:19:33;27.80;;;13.20;;
59922;SDS011;45778;51.142;3.732;2022-12-18T08:21:59;25.73;;;13.27;;
59922;SDS011;45778;51.142;3.732;2022-12-18T08:24:25;24.65;;;13.38;;
59922;SDS011;45778;51.142;3.732;2022-12-18T08:26:51;27.20;;;13.80;;
59922;SDS011;45778;51.142;3.732;2022-12-18T08:29:16;26.70;;;13.63;;
59922;SDS011;45778;51.142;3.732;2022-12-18T08:31:42;27.02;;;14.25;;
59922;SDS011;45778;51.142;3.732;2022-12-18T08:34:08;28.75;;;13.07;;
59922;SDS011;45778;51.142;3.732;2022-12-18T08:36:34;30.63;;;13.75;;
59922;SDS011;45778;51.142;3.732;2022-12-18T08:39:00;25.77;;;13.85;;
59922;SDS011;45778;51.142;3.732;2022-12-18T08:41:26;25.42;;;12.57;;
59922;SDS011;45778;51.142;3.732;2022-12-18T08:43:51;24.70;;;13.40;;
59922;SDS011;45778;51.142;3.732;2022-12-18T08:46:39;24.58;;;12.15;;
59922;SDS011;45778;51.142;3.732;2022-12-18T08:49:07;25.58;;;13.52;;
59922;SDS011;45778;51.142;3.732;2022-12-18T08:51:34;26.02;;;12.68;;
59922;SDS011;45778;51.142;3.732;2022-12-18T08:54:00;25.88;;;13.43;;
59922;SDS011;45778;51.142;3.732;2022-12-18T08:56:26;24.70;;;12.70;;
59922;SDS011;45778;51.142;3.732;2022-12-18T08:58:52;24.40;;;12.27;;
59922;SDS011;45778;51.142;3.732;2022-12-18T09:01:19;23.58;;;13.27;;
59922;SDS011;45778;51.142;3.732;2022-12-18T09:03:45;23.50;;;12.60;;
59922;SDS011;45778;51.142;3.732;2022-12-18T09:06:14;24.85;;;13.20;;
59922;SDS011;45778;51.142;3.732;2022-12-18T09:08:41;22.77;;;12.13;;
59922;SDS011;45778;51.142;3.732;2022-12-18T09:11:15;21.98;;;11.82;;
59922;SDS011;45778;51.142;3.732;2022-12-18T09:13:48;21.27;;;12.20;;
59922;SDS011;45778;51.142;3.732;2022-12-18T09:16:14;24.98;;;12.48;;
59922;SDS011;45778;51.142;3.732;2022-12-18T09:18:40;23.00;;;11.63;;
59922;SDS011;45778;51.142;3.732;2022-12-18T09:21:10;22.80;;;12.90;;
59922;SDS011;45778;51.142;3.732;2022-12-18T09:23:37;30.85;;;20.15;;
59922;SDS011;45778;51.142;3.732;2022-12-18T09:26:03;41.75;;;24.15;;
59922;SDS011;45778;51.142;3.732;2022-12-18T09:28:29;22.85;;;11.82;;
59922;SDS011;45778;51.142;3.732;2022-12-18T09:30:55;21.20;;;12.13;;
59922;SDS011;45778;51.142;3.732;2022-12-18T09:33:20;22.40;;;14.25;;
59922;SDS011;45778;51.142;3.732;2022-12-18T09:35:46;28.10;;;15.60;;
59922;SDS011;45778;51.142;3.732;2022-12-18T09:38:13;33.28;;;17.70;;
59922;SDS011;45778;51.142;3.732;2022-12-18T09:40:51;30.80;;;16.05;;
59922;SDS011;45778;51.142;3.732;2022-12-18T09:43:24;26.73;;;14.10;;
59922;SDS011;45778;51.142;3.732;2022-12-18T09:45:55;24.50;;;12.73;;
59922;SDS011;45778;51.142;3.732;2022-12-18T09:48:31;23.92;;;12.20;;
59922;SDS011;45778;51.142;3.732;2022-12-18T09:51:00;23.02;;;12.65;;
59922;SDS011;45778;51.142;3.732;2022-12-18T09:53:31;22.10;;;13.15;;
59922;SDS011;45778;51.142;3.732;2022-12-18T09:56:01;22.20;;;11.55;;
59922;SDS011;45778;51.142;3.732;2022-12-18T10:01:10;19.60;;;11.73;;
59922;SDS011;45778;51.142;3.732;2022-12-18T10:03:49;22.10;;;12.80;;
59922;SDS011;45778;51.142;3.732;2022-12-18T10:09:07;24.63;;;13.27;;
59922;SDS011;45778;51.142;3.732;2022-12-18T10:12:06;21.95;;;12.40;;
59922;SDS011;45778;51.142;3.732;2022-12-18T10:22:43;18.77;;;11.02;;
59922;SDS011;45778;51.142;3.732;2022-12-18T10:28:00;15.25;;;9.50;;
59922;SDS011;45778;51.142;3.732;2022-12-18T10:30:37;17.02;;;10.27;;
59922;SDS011;45778;51.142;3.732;2022-12-18T10:33:04;18.90;;;11.07;;
59922;SDS011;45778;51.142;3.732;2022-12-18T10:35:30;18.52;;;11.25;;
59922;SDS011;45778;51.142;3.732;2022-12-18T10:40:48;20.15;;;11.23;;
59922;SDS011;45778;51.142;3.732;2022-12-18T10:43:22;18.63;;;10.95;;
59922;SDS011;45778;51.142;3.732;2022-12-18T10:48:30;18.02;;;10.52;;
59922;SDS011;45778;51.142;3.732;2022-12-18T10:50:58;18.45;;;10.68;;
59922;SDS011;45778;51.142;3.732;2022-12-18T10:53:26;20.48;;;10.93;;
59922;SDS011;45778;51.142;3.732;2022-12-18T10:55:54;17.90;;;10.30;;
59922;SDS011;45778;51.142;3.732;2022-12-18T10:58:32;17.42;;;9.55;;
59922;SDS011;45778;51.142;3.732;2022-12-18T11:01:17;22.75;;;11.05;;
59922;SDS011;45778;51.142;3.732;2022-12-18T11:06:21;17.90;;;11.82;;
59922;SDS011;45778;51.142;3.732;2022-12-18T11:09:05;20.15;;;11.48;;
59922;SDS011;45778;51.142;3.732;2022-12-18T11:11:51;22.70;;;12.50;;
59922;SDS011;45778;51.142;3.732;2022-12-18T11:14:26;20.90;;;12.15;;
59922;SDS011;45778;51.142;3.732;2022-12-18T11:16:57;23.65;;;13.93;;
59922;SDS011;45778;51.142;3.732;2022-12-18T11:21:56;22.27;;;13.05;;
59922;SDS011;45778;51.142;3.732;2022-12-18T11:24:25;21.40;;;13.40;;
59922;SDS011;45778;51.142;3.732;2022-12-18T11:26:55;19.63;;;12.52;;
59922;SDS011;45778;51.142;3.732;2022-12-18T11:29:36;21.27;;;12.70;;
59922;SDS011;45778;51.142;3.732;2022-12-18T11:32:19;18.30;;;10.82;;
59922;SDS011;45778;51.142;3.732;2022-12-18T11:35:09;23.20;;;12.38;;
59922;SDS011;45778;51.142;3.732;2022-12-18T11:37:36;20.35;;;12.75;;
59922;SDS011;45778;51.142;3.732;2022-12-18T11:40:06;25.63;;;12.90;;
59922;SDS011;45778;51.142;3.732;2022-12-18T11:47:56;21.85;;;13.32;;
59922;SDS011;45778;51.142;3.732;2022-12-18T11:50:59;22.75;;;13.52;;
59922;SDS011;45778;51.142;3.732;2022-12-18T11:53:19;20.75;;;12.55;;
59922;SDS011;45778;51.142;3.732;2022-12-18T11:58:44;25.38;;;15.30;;
59922;SDS011;45778;51.142;3.732;2022-12-18T12:01:27;23.40;;;13.13;;
59922;SDS011;45778;51.142;3.732;2022-12-18T12:12:24;21.55;;;14.40;;
59922;SDS011;45778;51.142;3.732;2022-12-18T12:17:43;24.58;;;14.43;;
59922;SDS011;45778;51.142;3.732;2022-12-18T12:20:25;23.45;;;14.38;;
59922;SDS011;45778;51.142;3.732;2022-12-18T12:23:22;21.98;;;13.88;;
59922;SDS011;45778;51.142;3.732;2022-12-18T12:26:11;25.75;;;14.82;;
59922;SDS011;45778;51.142;3.732;2022-12-18T12:34:22;24.25;;;14.63;;
59922;SDS011;45778;51.142;3.732;2022-12-18T12:39:43;26.02;;;16.50;;
59922;SDS011;45778;51.142;3.732;2022-12-18T12:42:13;26.98;;;15.77;;
59922;SDS011;45778;51.142;3.732;2022-12-18T12:45:04;25.10;;;16.52;;
59922;SDS011;45778;51.142;3.732;2022-12-18T12:47:33;27.27;;;16.95;;
59922;SDS011;45778;51.142;3.732;2022-12-18T12:50:05;27.73;;;16.70;;
59922;SDS011;45778;51.142;3.732;2022-12-18T12:52:42;27.83;;;16.45;;
59922;SDS011;45778;51.142;3.732;2022-12-18T12:55:16;25.02;;;14.52;;
59922;SDS011;45778;51.142;3.732;2022-12-18T13:00:19;28.75;;;15.48;;
59922;SDS011;45778;51.142;3.732;2022-12-18T13:03:51;27.85;;;15.23;;
59922;SDS011;45778;51.142;3.732;2022-12-18T13:05:59;25.10;;;14.57;;
59922;SDS011;45778;51.142;3.732;2022-12-18T13:08:31;27.90;;;15.98;;
59922;SDS011;45778;51.142;3.732;2022-12-18T13:11:32;26.30;;;14.73;;
59922;SDS011;45778;51.142;3.732;2022-12-18T13:14:21;28.00;;;15.00;;
59922;SDS011;45778;51.142;3.732;2022-12-18T13:16:49;25.75;;;14.68;;
59922;SDS011;45778;51.142;3.732;2022-12-18T13:19:22;27.40;;;14.30;;
59922;SDS011;45778;51.142;3.732;2022-12-18T13:21:55;27.17;;;15.00;;
59922;SDS011;45778;51.142;3.732;2022-12-18T13:24:23;26.52;;;15.32;;
59922;SDS011;45778;51.142;3.732;2022-12-18T13:26:51;26.23;;;14.63;;
59922;SDS011;45778;51.142;3.732;2022-12-18T13:29:40;26.25;;;14.88;;
59922;SDS011;45778;51.142;3.732;2022-12-18T13:32:10;30.48;;;15.90;;
59922;SDS011;45778;51.142;3.732;2022-12-18T13:34:45;31.60;;;17.88;;
59922;SDS011;45778;51.142;3.732;2022-12-18T13:39:56;30.50;;;18.48;;
59922;SDS011;45778;51.142;3.732;2022-12-18T13:42:31;29.00;;;16.13;;
59922;SDS011;45778;51.142;3.732;2022-12-18T13:48:21;29.85;;;16.13;;
59922;SDS011;45778;51.142;3.732;2022-12-18T13:50:59;31.33;;;17.20;;
59922;SDS011;45778;51.142;3.732;2022-12-18T13:53:26;28.08;;;15.55;;
59922;SDS011;45778;51.142;3.732;2022-12-18T13:55:55;32.60;;;18.88;;
59922;SDS011;45778;51.142;3.732;2022-12-18T13:58:21;33.33;;;18.30;;
59922;SDS011;45778;51.142;3.732;2022-12-18T14:00:47;34.55;;;18.67;;
59922;SDS011;45778;51.142;3.732;2022-12-18T14:03:23;35.33;;;18.63;;
59922;SDS011;45778;51.142;3.732;2022-12-18T14:05:54;34.78;;;17.95;;
59922;SDS011;45778;51.142;3.732;2022-12-18T14:08:32;33.13;;;17.30;;
59922;SDS011;45778;51.142;3.732;2022-12-18T14:11:00;37.63;;;18.25;;
59922;SDS011;45778;51.142;3.732;2022-12-18T14:15:56;32.85;;;18.35;;
59922;SDS011;45778;51.142;3.732;2022-12-18T14:18:31;30.33;;;17.83;;
59922;SDS011;45778;51.142;3.732;2022-12-18T14:21:31;41.05;;;19.23;;
59922;SDS011;45778;51.142;3.732;2022-12-18T14:24:33;38.13;;;18.85;;
59922;SDS011;45778;51.142;3.732;2022-12-18T14:26:52;36.30;;;17.38;;
59922;SDS011;45778;51.142;3.732;2022-12-18T14:29:25;32.13;;;16.67;;
59922;SDS011;45778;51.142;3.732;2022-12-18T14:34:37;34.50;;;17.40;;
59922;SDS011;45778;51.142;3.732;2022-12-18T14:37:03;33.20;;;18.25;;
59922;SDS011;45778;51.142;3.732;2022-12-18T14:39:29;34.03;;;19.10;;
59922;SDS011;45778;51.142;3.732;2022-12-18T14:41:55;31.02;;;17.30;;
59922;SDS011;45778;51.142;3.732;2022-12-18T14:44:20;30.42;;;16.35;;
59922;SDS011;45778;51.142;3.732;2022-12-18T14:46:46;38.33;;;19.60;;
59922;SDS011;45778;51.142;3.732;2022-12-18T14:49:18;37.15;;;18.23;;
59922;SDS011;45778;51.142;3.732;2022-12-18T14:51:49;32.63;;;17.48;;
59922;SDS011;45778;51.142;3.732;2022-12-18T14:54:18;29.02;;;17.48;;
59922;SDS011;45778;51.142;3.732;2022-12-18T14:56:49;33.92;;;17.67;;
59922;SDS011;45778;51.142;3.732;2022-12-18T14:59:20;33.03;;;18.33;;
59922;SDS011;45778;51.142;3.732;2022-12-18T15:04:41;34.15;;;18.50;;
59922;SDS011;45778;51.142;3.732;2022-12-18T15:07:18;37.60;;;18.35;;
59922;SDS011;45778;51.142;3.732;2022-12-18T15:12:36;35.15;;;18.15;;
59922;SDS011;45778;51.142;3.732;2022-12-18T15:15:04;35.70;;;19.65;;
59922;SDS011;45778;51.142;3.732;2022-12-18T15:17:56;36.05;;;19.48;;
59922;SDS011;45778;51.142;3.732;2022-12-18T15:20:23;40.30;;;19.92;;
59922;SDS011;45778;51.142;3.732;2022-12-18T15:22:49;31.42;;;17.90;;
59922;SDS011;45778;51.142;3.732;2022-12-18T15:25:24;34.50;;;18.75;;
59922;SDS011;45778;51.142;3.732;2022-12-18T15:27:57;40.25;;;19.63;;
59922;SDS011;45778;51.142;3.732;2022-12-18T15:30:26;32.83;;;18.02;;
59922;SDS011;45778;51.142;3.732;2022-12-18T15:32:52;34.22;;;18.25;;
59922;SDS011;45778;51.142;3.732;2022-12-18T15:35:37;39.17;;;19.13;;
59922;SDS011;45778;51.142;3.732;2022-12-18T15:38:03;44.70;;;21.30;;
59922;SDS011;45778;51.142;3.732;2022-12-18T15:40:29;35.22;;;19.35;;
59922;SDS011;45778;51.142;3.732;2022-12-18T15:42:55;35.28;;;18.88;;
59922;SDS011;45778;51.142;3.732;2022-12-18T15:45:39;39.15;;;18.92;;
59922;SDS011;45778;51.142;3.732;2022-12-18T15:48:19;35.45;;;18.45;;
59922;SDS011;45778;51.142;3.732;2022-12-18T15:50:46;32.67;;;17.13;;
59922;SDS011;45778;51.142;3.732;2022-12-18T15:53:12;38.67;;;18.35;;
59922;SDS011;45778;51.142;3.732;2022-12-18T15:55:38;32.30;;;17.42;;
59922;SDS011;45778;51.142;3.732;2022-12-18T15:58:22;35.33;;;18.50;;
59922;SDS011;45778;51.142;3.732;2022-12-18T16:00:48;35.85;;;19.70;;
59922;SDS011;45778;51.142;3.732;2022-12-18T16:03:14;37.00;;;19.45;;
59922;SDS011;45778;51.142;3.732;2022-12-18T16:05:39;35.80;;;19.02;;
59922;SDS011;45778;51.142;3.732;2022-12-18T16:08:05;31.50;;;16.67;;
59922;SDS011;45778;51.142;3.732;2022-12-18T16:10:31;36.38;;;18.30;;
59922;SDS011;45778;51.142;3.732;2022-12-18T16:12:57;33.25;;;17.02;;
59922;SDS011;45778;51.142;3.732;2022-12-18T16:15:22;34.58;;;16.75;;
59922;SDS011;45778;51.142;3.732;2022-12-18T16:17:48;34.95;;;18.88;;
59922;SDS011;45778;51.142;3.732;2022-12-18T16:20:15;35.20;;;17.83;;
59922;SDS011;45778;51.142;3.732;2022-12-18T16:22:43;30.88;;;16.33;;